nws-alerts: Checking more than four warning/county codes can delay the loading of your pages. You should use a cron job to get the data.
EllijayWeather Station Historical Data
Daily Summary for January 16, 2019 Units:  English    Metric   Both
Daily Weekly Monthly Yearly Custom
  High: Low: Average:
Temperature: 47.5 °F 23.5 °F 33 °F
Dew Point: 37.6 °F 21.9 °F 29.5 °F
Humidity: 96% 67% 88%
Wind Speed: 2.9mph 0.0mph 0.1mph
Wind Gust: 5.0mph - -
Wind- - WNW
Pressure: 30.40 in 30.30 in -
Precipitation: 0.00 in    
Historical Graphs
 
 
Tabular Data for January 16, 2019
Time Temperature Dew Point Pressure Wind Wind Speed Wind Gust Humidity Rainfall Rate (Hourly) solar
00:04 26.4 °F 25.0 °F 30.32 in Calm     94% 0.00 in meteobridge W/m2
00:09 26.4 °F 25.0 °F 30.32 in Calm     94% 0.00 in meteobridge W/m2
00:14 26.2 °F 24.8 °F 30.32 in Calm     94% 0.00 in meteobridge W/m2
00:18 26.2 °F 24.8 °F 30.32 in Calm     94% 0.00 in meteobridge W/m2
00:24 26.2 °F 24.8 °F 30.32 in Calm     94% 0.00 in meteobridge W/m2
00:29 26.1 °F 24.6 °F 30.32 in Calm     94% 0.00 in meteobridge W/m2
00:34 26.1 °F 24.6 °F 30.32 in Calm     94% 0.00 in meteobridge W/m2
00:39 25.9 °F 24.4 °F 30.32 in Calm     94% 0.00 in meteobridge W/m2
00:44 25.9 °F 24.4 °F 30.32 in Calm     94% 0.00 in meteobridge W/m2
00:49 25.9 °F 24.4 °F 30.32 in Calm     94% 0.00 in meteobridge W/m2
00:54 25.9 °F 24.4 °F 30.32 in Calm     94% 0.00 in meteobridge W/m2
00:59 25.7 °F 24.3 °F 30.31 in Calm     94% 0.00 in meteobridge W/m2
01:04 25.7 °F 24.3 °F 30.31 in Calm     94% 0.00 in meteobridge W/m2
01:09 25.7 °F 24.3 °F 30.31 in Calm     94% 0.00 in meteobridge W/m2
01:14 25.5 °F 24.1 °F 30.32 in Calm     94% 0.00 in meteobridge W/m2
01:19 25.5 °F 24.1 °F 30.32 in Calm     94% 0.00 in meteobridge W/m2
01:24 25.5 °F 24.1 °F 30.32 in Calm     94% 0.00 in meteobridge W/m2
01:29 25.3 °F 23.9 °F 30.32 in Calm     94% 0.00 in meteobridge W/m2
01:34 25.3 °F 23.9 °F 30.32 in Calm     94% 0.00 in meteobridge W/m2
01:39 25.2 °F 23.7 °F 30.32 in Calm     94% 0.00 in meteobridge W/m2
01:44 25.2 °F 23.7 °F 30.32 in Calm     94% 0.00 in meteobridge W/m2
01:49 25.2 °F 23.7 °F 30.32 in Calm     94% 0.00 in meteobridge W/m2
01:54 25.2 °F 23.7 °F 30.32 in Calm     94% 0.00 in meteobridge W/m2
01:59 25.0 °F 23.5 °F 30.32 in Calm     94% 0.00 in meteobridge W/m2
02:04 25.0 °F 23.5 °F 30.32 in Calm     94% 0.00 in meteobridge W/m2
02:09 25.0 °F 23.5 °F 30.32 in Calm     94% 0.00 in meteobridge W/m2
02:14 24.8 °F 23.4 °F 30.32 in Calm     94% 0.00 in meteobridge W/m2
02:19 24.6 °F 23.2 °F 30.32 in Calm     94% 0.00 in meteobridge W/m2
02:24 24.6 °F 23.2 °F 30.32 in Calm     94% 0.00 in meteobridge W/m2
02:29 24.6 °F 23.2 °F 30.32 in Calm     94% 0.00 in meteobridge W/m2
02:34 24.4 °F 23.0 °F 30.33 in Calm     94% 0.00 in meteobridge W/m2
02:39 24.4 °F 23.0 °F 30.32 in Calm     94% 0.00 in meteobridge W/m2
02:44 24.4 °F 23.0 °F 30.32 in Calm     94% 0.00 in meteobridge W/m2
02:49 24.3 °F 22.8 °F 30.32 in Calm     94% 0.00 in meteobridge W/m2
02:53 24.3 °F 22.8 °F 30.32 in Calm     94% 0.00 in meteobridge W/m2
02:58 24.3 °F 22.8 °F 30.32 in Calm     94% 0.00 in meteobridge W/m2
03:04 24.3 °F 22.8 °F 30.32 in Calm     94% 0.00 in meteobridge W/m2
03:09 24.3 °F 22.8 °F 30.32 in Calm     94% 0.00 in meteobridge W/m2
03:14 24.1 °F 22.6 °F 30.32 in Calm     94% 0.00 in meteobridge W/m2
03:19 24.1 °F 22.6 °F 30.32 in Calm     94% 0.00 in meteobridge W/m2
03:24 24.1 °F 22.6 °F 30.32 in Calm     94% 0.00 in meteobridge W/m2
03:29 24.1 °F 22.3 °F 30.33 in Calm     93% 0.00 in meteobridge W/m2
03:34 24.1 °F 22.6 °F 30.33 in Calm     94% 0.00 in meteobridge W/m2
03:39 23.9 °F 22.1 °F 30.33 in Calm     93% 0.00 in meteobridge W/m2
03:44 23.9 °F 22.5 °F 30.33 in Calm     94% 0.00 in meteobridge W/m2
03:49 23.7 °F 22.3 °F 30.33 in Calm     94% 0.00 in meteobridge W/m2
03:54 23.7 °F 21.9 °F 30.33 in Calm     93% 0.00 in meteobridge W/m2
03:59 23.7 °F 22.3 °F 30.33 in Calm     94% 0.00 in meteobridge W/m2
04:04 23.7 °F 22.3 °F 30.33 in Calm     94% 0.00 in meteobridge W/m2
04:09 23.7 °F 22.3 °F 30.33 in Calm     94% 0.00 in meteobridge W/m2
04:14 23.5 °F 22.1 °F 30.33 in Calm     94% 0.00 in meteobridge W/m2
04:19 23.5 °F 22.1 °F 30.32 in Calm     94% 0.00 in meteobridge W/m2
04:24 23.5 °F 22.1 °F 30.32 in Calm     94% 0.00 in meteobridge W/m2
04:29 23.5 °F 22.1 °F 30.32 in Calm     94% 0.00 in meteobridge W/m2
04:34 23.5 °F 22.1 °F 30.32 in Calm     94% 0.00 in meteobridge W/m2
04:39 23.7 °F 22.3 °F 30.32 in Calm     94% 0.00 in meteobridge W/m2
04:44 23.7 °F 22.5 °F 30.32 in Calm     95% 0.00 in meteobridge W/m2
04:49 23.7 °F 22.5 °F 30.32 in Calm     95% 0.00 in meteobridge W/m2
04:54 23.9 °F 22.6 °F 30.32 in Calm     95% 0.00 in meteobridge W/m2
04:59 24.1 °F 22.8 °F 30.33 in Calm     95% 0.00 in meteobridge W/m2
05:04 24.1 °F 22.8 °F 30.33 in Calm     95% 0.00 in meteobridge W/m2
05:09 24.3 °F 23.0 °F 30.32 in Calm     95% 0.00 in meteobridge W/m2
05:14 24.4 °F 23.2 °F 30.32 in Calm     95% 0.00 in meteobridge W/m2
05:19 24.6 °F 23.4 °F 30.32 in Calm     95% 0.00 in meteobridge W/m2
05:24 24.6 °F 23.4 °F 30.33 in Calm     95% 0.00 in meteobridge W/m2
05:29 25.0 °F 23.7 °F 30.33 in Calm     95% 0.00 in meteobridge W/m2
05:34 25.2 °F 24.3 °F 30.32 in Calm     96% 0.00 in meteobridge W/m2
05:39 25.2 °F 23.9 °F 30.32 in Calm     95% 0.00 in meteobridge W/m2
05:44 25.3 °F 24.1 °F 30.32 in Calm     95% 0.00 in meteobridge W/m2
05:49 25.5 °F 24.3 °F 30.33 in Calm     95% 0.00 in meteobridge W/m2
05:54 25.7 °F 24.4 °F 30.33 in Calm     95% 0.00 in meteobridge W/m2
05:59 25.7 °F 24.4 °F 30.33 in Calm     95% 0.00 in meteobridge W/m2
06:04 26.1 °F 25.2 °F 30.33 in Calm     96% 0.00 in meteobridge W/m2
06:09 26.2 °F 25.3 °F 30.33 in Calm     96% 0.00 in meteobridge W/m2
06:14 26.4 °F 25.5 °F 30.33 in Calm     96% 0.00 in meteobridge W/m2
06:19 26.4 °F 25.5 °F 30.33 in Calm     96% 0.00 in meteobridge W/m2
06:24 26.8 °F 25.9 °F 30.34 in Calm     96% 0.00 in meteobridge W/m2
06:29 27.0 °F 26.1 °F 30.33 in Calm   1.0 mph 96% 0.00 in meteobridge W/m2
06:33 27.0 °F 26.1 °F 30.34 in Calm     96% 0.00 in meteobridge W/m2
06:39 27.1 °F 26.2 °F 30.34 in Calm     96% 0.00 in meteobridge W/m2
06:44 27.3 °F 26.4 °F 30.34 in Calm     96% 0.00 in meteobridge W/m2
06:49 27.3 °F 26.4 °F 30.34 in Calm     96% 0.00 in meteobridge W/m2
06:54 27.5 °F 26.6 °F 30.34 in Calm     96% 0.00 in meteobridge W/m2
06:59 27.7 °F 26.6 °F 30.35 in Calm     96% 0.00 in meteobridge W/m2
07:04 27.7 °F 26.6 °F 30.35 in Calm     96% 0.00 in meteobridge W/m2
07:09 27.7 °F 26.6 °F 30.35 in Calm     96% 0.00 in meteobridge W/m2
07:14 27.9 °F 26.8 °F 30.35 in Calm   2.0 mph 96% 0.00 in meteobridge W/m2
07:19 27.9 °F 26.8 °F 30.35 in Calm     96% 0.00 in meteobridge W/m2
07:24 27.9 °F 26.8 °F 30.35 in Calm   2.0 mph 96% 0.00 in meteobridge W/m2
07:29 28.0 °F 27.0 °F 30.35 in Calm     96% 0.00 in meteobridge W/m2
07:34 27.9 °F 26.8 °F 30.35 in Calm     96% 0.00 in meteobridge W/m2
07:39 27.9 °F 26.8 °F 30.36 in Calm     96% 0.00 in meteobridge W/m2
07:44 28.0 °F 27.0 °F 30.35 in Calm     96% 0.00 in meteobridge W/m2
07:49 28.0 °F 27.0 °F 30.36 in Calm   1.0 mph 96% 0.00 in meteobridge W/m2
07:54 28.0 °F 27.0 °F 30.36 in Calm     96% 0.00 in meteobridge W/m2
07:59 28.0 °F 27.0 °F 30.36 in Calm     96% 0.00 in meteobridge W/m2
08:04 28.0 °F 27.0 °F 30.36 in NNW 0.9 mph 1.0 mph 96% 0.00 in meteobridge W/m2
08:09 28.0 °F 27.0 °F 30.36 in Calm     96% 0.00 in meteobridge W/m2
08:14 28.2 °F 27.1 °F 30.36 in Calm   1.0 mph 96% 0.00 in meteobridge W/m2
08:19 28.2 °F 27.1 °F 30.36 in Calm   2.0 mph 96% 0.00 in meteobridge W/m2
08:24 28.2 °F 27.1 °F 30.37 in Calm     96% 0.00 in meteobridge W/m2
08:29 28.2 °F 27.1 °F 30.37 in Calm     96% 0.00 in meteobridge W/m2
08:34 28.2 °F 27.1 °F 30.37 in Calm     96% 0.00 in meteobridge W/m2
08:39 28.2 °F 27.1 °F 30.37 in Calm   1.0 mph 96% 0.00 in meteobridge W/m2
08:44 28.4 °F 27.3 °F 30.37 in Calm     96% 0.00 in meteobridge W/m2
08:49 28.4 °F 27.1 °F 30.37 in Calm     95% 0.00 in meteobridge W/m2
08:54 28.4 °F 27.1 °F 30.37 in Calm     95% 0.00 in meteobridge W/m2
08:59 28.6 °F 27.3 °F 30.37 in Calm     95% 0.00 in meteobridge W/m2
09:04 28.6 °F 27.3 °F 30.37 in Calm     95% 0.00 in meteobridge W/m2
09:09 28.6 °F 27.3 °F 30.37 in Calm     95% 0.00 in meteobridge W/m2
09:14 28.8 °F 27.5 °F 30.38 in Calm     95% 0.00 in meteobridge W/m2
09:19 28.6 °F 27.3 °F 30.38 in Calm   3.0 mph 95% 0.00 in meteobridge W/m2
09:24 28.6 °F 27.3 °F 30.38 in Calm   1.0 mph 95% 0.00 in meteobridge W/m2
09:29 28.6 °F 27.1 °F 30.38 in Calm   3.0 mph 94% 0.00 in meteobridge W/m2
09:34 28.6 °F 27.3 °F 30.38 in Calm   1.0 mph 95% 0.00 in meteobridge W/m2
09:39 28.6 °F 27.3 °F 30.39 in Calm   4.0 mph 95% 0.00 in meteobridge W/m2
09:44 28.6 °F 27.3 °F 30.39 in Calm     95% 0.00 in meteobridge W/m2
09:49 28.8 °F 27.3 °F 30.39 in Calm   1.0 mph 94% 0.00 in meteobridge W/m2
09:54 28.8 °F 27.3 °F 30.39 in Calm     94% 0.00 in meteobridge W/m2
09:59 28.8 °F 27.5 °F 30.40 in Calm     95% 0.00 in meteobridge W/m2
10:04 28.9 °F 27.7 °F 30.40 in Calm     95% 0.00 in meteobridge W/m2
10:09 28.9 °F 27.5 °F 30.39 in Calm     94% 0.00 in meteobridge W/m2
10:14 29.3 °F 28.0 °F 30.40 in Calm     95% 0.00 in meteobridge W/m2
10:19 29.5 °F 28.2 °F 30.40 in Calm     95% 0.00 in meteobridge W/m2
10:24 29.8 °F 28.6 °F 30.40 in Calm   1.0 mph 95% 0.00 in meteobridge W/m2
10:29 30.0 °F 28.6 °F 30.40 in Calm     94% 0.00 in meteobridge W/m2
10:34 30.4 °F 28.9 °F 30.39 in Calm     94% 0.00 in meteobridge W/m2
10:39 30.6 °F 29.1 °F 30.39 in Calm     94% 0.00 in meteobridge W/m2
10:44 30.7 °F 28.9 °F 30.40 in Calm     93% 0.00 in meteobridge W/m2
10:49 30.9 °F 29.1 °F 30.40 in Calm     93% 0.00 in meteobridge W/m2
10:54 31.5 °F 30.0 °F 30.40 in Calm     94% 0.00 in meteobridge W/m2
10:59 31.8 °F 30.4 °F 30.40 in Calm     94% 0.00 in meteobridge W/m2
11:04 32.2 °F 30.2 °F 30.40 in Calm     92% 0.00 in meteobridge W/m2
11:09 32.4 °F 30.6 °F 30.40 in Calm     93% 0.00 in meteobridge W/m2
11:14 32.7 °F 30.7 °F 30.39 in Calm     92% 0.00 in meteobridge W/m2
11:19 33.3 °F 30.9 °F 30.39 in Calm     91% 0.00 in meteobridge W/m2
11:24 33.8 °F 31.6 °F 30.39 in Calm     92% 0.00 in meteobridge W/m2
11:29 34.3 °F 31.5 °F 30.39 in Calm     89% 0.00 in meteobridge W/m2
11:34 34.9 °F 32.0 °F 30.39 in Calm     89% 0.00 in meteobridge W/m2
11:39 35.2 °F 32.0 °F 30.39 in Calm     88% 0.00 in meteobridge W/m2
11:44 35.8 °F 32.4 °F 30.39 in Calm     87% 0.00 in meteobridge W/m2
11:49 36.3 °F 33.1 °F 30.38 in Calm     88% 0.00 in meteobridge W/m2
11:54 37.2 °F 33.8 °F 30.38 in Calm     87% 0.00 in meteobridge W/m2
11:59 37.9 °F 33.6 °F 30.37 in Calm     84% 0.00 in meteobridge W/m2
12:04 38.7 °F 34.0 °F 30.37 in Calm     83% 0.00 in meteobridge W/m2
12:09 39.4 °F 34.0 °F 30.37 in Calm     81% 0.00 in meteobridge W/m2
12:14 39.7 °F 34.2 °F 30.36 in Calm     80% 0.00 in meteobridge W/m2
12:19 40.3 °F 34.3 °F 30.36 in WNW 2.0 mph 2.0 mph 79% 0.00 in meteobridge W/m2
12:24 40.6 °F 34.3 °F 30.36 in Calm   1.0 mph 78% 0.00 in meteobridge W/m2
12:29 40.8 °F 34.5 °F 30.36 in West 0.9 mph 2.0 mph 78% 0.00 in meteobridge W/m2
12:34 41.2 °F 34.5 °F 30.35 in Calm   1.0 mph 77% 0.00 in meteobridge W/m2
12:39 41.5 °F 34.9 °F 30.35 in NW 0.9 mph 3.0 mph 77% 0.00 in meteobridge W/m2
12:44 41.7 °F 35.1 °F 30.36 in Calm   3.0 mph 77% 0.00 in meteobridge W/m2
12:49 42.1 °F 35.1 °F 30.35 in NW 2.9 mph 3.0 mph 76% 0.00 in meteobridge W/m2
12:54 42.3 °F 35.2 °F 30.35 in Calm     76% 0.00 in meteobridge W/m2
12:59 42.4 °F 35.4 °F 30.35 in WNW 0.9 mph 5.0 mph 76% 0.00 in meteobridge W/m2
13:04 42.8 °F 35.4 °F 30.34 in Calm     75% 0.00 in meteobridge W/m2
13:09 43.0 °F 35.2 °F 30.34 in Calm   4.0 mph 74% 0.00 in meteobridge W/m2
13:14 43.2 °F 35.4 °F 30.34 in Calm     74% 0.00 in meteobridge W/m2
13:19 43.3 °F 35.6 °F 30.34 in Calm   4.0 mph 74% 0.00 in meteobridge W/m2
13:24 43.3 °F 35.6 °F 30.33 in NW 2.0 mph 3.0 mph 74% 0.00 in meteobridge W/m2
13:29 43.5 °F 35.4 °F 30.33 in Calm   2.0 mph 73% 0.00 in meteobridge W/m2
13:34 44.1 °F 36.3 °F 30.32 in Calm     74% 0.00 in meteobridge W/m2
13:39 44.2 °F 35.8 °F 30.32 in Calm     72% 0.00 in meteobridge W/m2
13:44 44.4 °F 36.3 °F 30.32 in Calm     73% 0.00 in meteobridge W/m2
13:49 44.8 °F 36.0 °F 30.32 in Calm   3.0 mph 71% 0.00 in meteobridge W/m2
13:54 45.0 °F 36.1 °F 30.32 in Calm   1.0 mph 71% 0.00 in meteobridge W/m2
13:59 45.1 °F 36.3 °F 30.31 in Calm   4.0 mph 71% 0.00 in meteobridge W/m2
14:04 45.3 °F 36.1 °F 30.31 in Calm   2.0 mph 70% 0.00 in meteobridge W/m2
14:09 45.5 °F 36.3 °F 30.31 in Calm   3.0 mph 70% 0.00 in meteobridge W/m2
14:14 45.9 °F 37.0 °F 30.31 in WNW 2.0 mph 5.0 mph 71% 0.00 in meteobridge W/m2
14:19 46.0 °F 36.9 °F 30.30 in Calm   3.0 mph 70% 0.00 in meteobridge W/m2
14:24 46.0 °F 36.9 °F 30.31 in Calm     70% 0.00 in meteobridge W/m2
14:29 46.4 °F 37.2 °F 30.31 in Calm     70% 0.00 in meteobridge W/m2
14:34 46.8 °F 37.6 °F 30.31 in Calm     70% 0.00 in meteobridge W/m2
14:39 46.9 °F 36.9 °F 30.31 in Calm   1.0 mph 68% 0.00 in meteobridge W/m2
14:44 47.1 °F 37.4 °F 30.31 in Calm     69% 0.00 in meteobridge W/m2
14:49 47.1 °F 37.0 °F 30.31 in NW 0.9 mph 4.0 mph 68% 0.00 in meteobridge W/m2
14:54 47.1 °F 36.7 °F 30.31 in Calm   3.0 mph 67% 0.00 in meteobridge W/m2
14:59 47.3 °F 37.2 °F 30.31 in Calm   2.0 mph 68% 0.00 in meteobridge W/m2
15:04 47.3 °F 37.2 °F 30.31 in Calm     68% 0.00 in meteobridge W/m2
15:09 47.3 °F 36.9 °F 30.31 in Calm   4.0 mph 67% 0.00 in meteobridge W/m2
15:14 47.5 °F 37.4 °F 30.31 in Calm   1.0 mph 68% 0.00 in meteobridge W/m2
15:19 47.5 °F 37.4 °F 30.31 in Calm   2.0 mph 68% 0.00 in meteobridge W/m2
15:23 47.5 °F 37.4 °F 30.31 in Calm     68% 0.00 in meteobridge W/m2
15:29 47.3 °F 37.6 °F 30.31 in Calm   1.0 mph 69% 0.00 in meteobridge W/m2
15:34 47.1 °F 36.7 °F 30.31 in Calm   2.0 mph 67% 0.00 in meteobridge W/m2
15:39 47.1 °F 36.7 °F 30.31 in Calm   2.0 mph 67% 0.00 in meteobridge W/m2
15:44 46.9 °F 36.5 °F 30.32 in ESE 2.0 mph 5.0 mph 67% 0.00 in meteobridge W/m2
15:49 46.9 °F 36.9 °F 30.32 in Calm     68% 0.00 in meteobridge W/m2
15:54 46.8 °F 37.2 °F 30.32 in Calm     69% 0.00 in meteobridge W/m2
15:59 46.6 °F 36.5 °F 30.32 in Calm   1.0 mph 68% 0.00 in meteobridge W/m2
16:04 46.2 °F 36.7 °F 30.32 in Calm   1.0 mph 69% 0.00 in meteobridge W/m2
16:09 46.0 °F 36.1 °F 30.32 in Calm   3.0 mph 68% 0.00 in meteobridge W/m2
16:14 45.9 °F 36.7 °F 30.32 in Calm   1.0 mph 70% 0.00 in meteobridge W/m2
16:19 45.7 °F 36.5 °F 30.32 in Calm     70% 0.00 in meteobridge W/m2
16:24 45.3 °F 35.8 °F 30.32 in Calm   1.0 mph 69% 0.00 in meteobridge W/m2
16:29 45.1 °F 36.0 °F 30.32 in Calm     70% 0.00 in meteobridge W/m2
16:34 45.1 °F 36.0 °F 30.32 in Calm     70% 0.00 in meteobridge W/m2
16:39 45.0 °F 35.8 °F 30.32 in Calm     70% 0.00 in meteobridge W/m2
16:44 44.8 °F 35.6 °F 30.32 in Calm     70% 0.00 in meteobridge W/m2
16:49 44.6 °F 36.1 °F 30.32 in Calm     72% 0.00 in meteobridge W/m2
16:54 44.2 °F 35.8 °F 30.32 in Calm   1.0 mph 72% 0.00 in meteobridge W/m2
16:59 44.1 °F 36.0 °F 30.33 in Calm     73% 0.00 in meteobridge W/m2
17:04 43.5 °F 35.4 °F 30.33 in Calm     73% 0.00 in meteobridge W/m2
17:09 43.5 °F 35.4 °F 30.32 in Calm     73% 0.00 in meteobridge W/m2
17:14 43.3 °F 35.6 °F 30.32 in Calm     74% 0.00 in meteobridge W/m2
17:19 43.0 °F 34.9 °F 30.32 in Calm     73% 0.00 in meteobridge W/m2
17:24 42.6 °F 34.9 °F 30.32 in Calm     74% 0.00 in meteobridge W/m2
17:29 42.3 °F 35.2 °F 30.32 in Calm     76% 0.00 in meteobridge W/m2
17:34 42.1 °F 35.1 °F 30.32 in Calm     76% 0.00 in meteobridge W/m2
17:39 41.7 °F 34.7 °F 30.33 in Calm     76% 0.00 in meteobridge W/m2
17:44 41.4 °F 34.7 °F 30.33 in Calm     77% 0.00 in meteobridge W/m2
17:49 40.8 °F 34.5 °F 30.33 in Calm     78% 0.00 in meteobridge W/m2
17:54 40.5 °F 34.5 °F 30.32 in Calm     79% 0.00 in meteobridge W/m2
17:59 39.9 °F 34.3 °F 30.32 in Calm     80% 0.00 in meteobridge W/m2
18:04 39.6 °F 34.5 °F 30.32 in Calm     82% 0.00 in meteobridge W/m2
18:09 39.0 °F 33.6 °F 30.32 in Calm     81% 0.00 in meteobridge W/m2
18:14 38.8 °F 33.8 °F 30.32 in Calm     82% 0.00 in meteobridge W/m2
18:19 38.5 °F 33.8 °F 30.33 in Calm   1.0 mph 83% 0.00 in meteobridge W/m2
18:24 38.5 °F 34.2 °F 30.33 in Calm   1.0 mph 84% 0.00 in meteobridge W/m2
18:29 38.1 °F 33.8 °F 30.33 in Calm     84% 0.00 in meteobridge W/m2
18:34 38.1 °F 33.8 °F 30.33 in Calm     84% 0.00 in meteobridge W/m2
18:39 37.9 °F 33.6 °F 30.32 in Calm     84% 0.00 in meteobridge W/m2
18:44 38.1 °F 34.0 °F 30.33 in Calm     85% 0.00 in meteobridge W/m2
18:49 38.1 °F 33.8 °F 30.33 in Calm     84% 0.00 in meteobridge W/m2
18:54 37.9 °F 33.6 °F 30.33 in Calm     84% 0.00 in meteobridge W/m2
18:59 37.8 °F 33.6 °F 30.33 in Calm     85% 0.00 in meteobridge W/m2
19:04 38.1 °F 34.0 °F 30.34 in Calm     85% 0.00 in meteobridge W/m2
19:09 37.9 °F 33.6 °F 30.34 in Calm   3.0 mph 84% 0.00 in meteobridge W/m2
19:14 37.9 °F 33.8 °F 30.34 in Calm     85% 0.00 in meteobridge W/m2
19:19 37.9 °F 33.8 °F 30.34 in Calm   2.0 mph 85% 0.00 in meteobridge W/m2
19:24 37.8 °F 33.6 °F 30.34 in Calm     85% 0.00 in meteobridge W/m2
19:29 37.6 °F 33.4 °F 30.35 in Calm     85% 0.00 in meteobridge W/m2
19:34 37.4 °F 33.6 °F 30.35 in Calm     86% 0.00 in meteobridge W/m2
19:39 37.2 °F 33.4 °F 30.34 in Calm     86% 0.00 in meteobridge W/m2
19:44 37.0 °F 33.3 °F 30.34 in Calm     86% 0.00 in meteobridge W/m2
19:49 37.0 °F 33.3 °F 30.34 in Calm     86% 0.00 in meteobridge W/m2
19:54 36.9 °F 33.1 °F 30.34 in Calm     86% 0.00 in meteobridge W/m2
19:59 36.5 °F 33.1 °F 30.34 in Calm     87% 0.00 in meteobridge W/m2
20:04 36.3 °F 32.9 °F 30.34 in Calm     87% 0.00 in meteobridge W/m2
20:09 36.1 °F 32.7 °F 30.34 in Calm     87% 0.00 in meteobridge W/m2
20:14 36.0 °F 32.5 °F 30.34 in Calm     87% 0.00 in meteobridge W/m2
20:19 35.6 °F 32.4 °F 30.34 in Calm     88% 0.00 in meteobridge W/m2
20:24 35.2 °F 32.0 °F 30.34 in Calm     88% 0.00 in meteobridge W/m2
20:29 35.1 °F 32.2 °F 30.34 in Calm     89% 0.00 in meteobridge W/m2
20:34 34.9 °F 32.0 °F 30.33 in Calm     89% 0.00 in meteobridge W/m2
20:39 34.3 °F 31.5 °F 30.33 in Calm     89% 0.00 in meteobridge W/m2
20:44 34.0 °F 31.1 °F 30.34 in Calm     89% 0.00 in meteobridge W/m2
20:49 33.8 °F 30.9 °F 30.34 in Calm     89% 0.00 in meteobridge W/m2
20:54 33.6 °F 30.9 °F 30.34 in Calm     90% 0.00 in meteobridge W/m2
20:59 33.4 °F 30.7 °F 30.34 in Calm     90% 0.00 in meteobridge W/m2
21:04 33.1 °F 30.4 °F 30.33 in Calm     90% 0.00 in meteobridge W/m2
21:09 32.7 °F 30.4 °F 30.33 in Calm     91% 0.00 in meteobridge W/m2
21:14 32.5 °F 30.2 °F 30.33 in Calm     91% 0.00 in meteobridge W/m2
21:19 32.4 °F 30.0 °F 30.33 in Calm     91% 0.00 in meteobridge W/m2
21:24 32.2 °F 29.8 °F 30.34 in Calm     91% 0.00 in meteobridge W/m2
21:29 31.8 °F 29.5 °F 30.34 in Calm     91% 0.00 in meteobridge W/m2
21:34 31.8 °F 29.8 °F 30.34 in Calm     92% 0.00 in meteobridge W/m2
21:39 31.6 °F 29.7 °F 30.34 in Calm     92% 0.00 in meteobridge W/m2
21:44 31.5 °F 29.5 °F 30.34 in Calm     92% 0.00 in meteobridge W/m2
21:49 31.3 °F 29.3 °F 30.34 in Calm     92% 0.00 in meteobridge W/m2
21:54 30.9 °F 28.9 °F 30.34 in Calm     92% 0.00 in meteobridge W/m2
21:59 30.7 °F 28.8 °F 30.34 in Calm     92% 0.00 in meteobridge W/m2
22:04 30.7 °F 28.8 °F 30.33 in Calm     92% 0.00 in meteobridge W/m2
22:09 30.6 °F 28.6 °F 30.34 in Calm     92% 0.00 in meteobridge W/m2
22:14 30.4 °F 28.6 °F 30.34 in Calm     93% 0.00 in meteobridge W/m2
22:19 30.2 °F 28.4 °F 30.34 in Calm     93% 0.00 in meteobridge W/m2
22:24 30.0 °F 28.2 °F 30.34 in Calm     93% 0.00 in meteobridge W/m2
22:29 29.8 °F 28.0 °F 30.34 in Calm     93% 0.00 in meteobridge W/m2
22:34 29.8 °F 28.0 °F 30.35 in Calm     93% 0.00 in meteobridge W/m2
22:39 29.7 °F 27.9 °F 30.35 in Calm     93% 0.00 in meteobridge W/m2
22:44 29.5 °F 27.7 °F 30.35 in Calm     93% 0.00 in meteobridge W/m2
22:48 29.5 °F 27.7 °F 30.36 in Calm     93% 0.00 in meteobridge W/m2
22:54 29.3 °F 27.9 °F 30.36 in Calm     94% 0.00 in meteobridge W/m2
22:59 29.1 °F 27.7 °F 30.36 in Calm     94% 0.00 in meteobridge W/m2
23:04 29.1 °F 27.7 °F 30.37 in Calm     94% 0.00 in meteobridge W/m2
23:09 28.9 °F 27.5 °F 30.37 in Calm     94% 0.00 in meteobridge W/m2
23:14 28.9 °F 27.5 °F 30.37 in Calm     94% 0.00 in meteobridge W/m2
23:19 28.9 °F 27.5 °F 30.37 in Calm     94% 0.00 in meteobridge W/m2
23:24 28.8 °F 27.3 °F 30.36 in Calm     94% 0.00 in meteobridge W/m2
23:29 28.8 °F 27.3 °F 30.36 in Calm     94% 0.00 in meteobridge W/m2
23:34 28.8 °F 27.3 °F 30.36 in Calm     94% 0.00 in meteobridge W/m2
23:39 28.8 °F 27.3 °F 30.36 in Calm     94% 0.00 in meteobridge W/m2
23:44 28.6 °F 27.3 °F 30.36 in Calm     95% 0.00 in meteobridge W/m2
23:49 28.6 °F 27.3 °F 30.36 in Calm     95% 0.00 in meteobridge W/m2
23:54 28.6 °F 27.1 °F 30.36 in Calm     94% 0.00 in meteobridge W/m2
23:59 28.6 °F 27.3 °F 30.36 in Calm     95% 0.00 in meteobridge W/m2
EllijayWeather
Compliments of Weather Underground - 2.5 mb